createdAt,value
2019-06-08T00:00:24.515Z,15.90
2019-06-08T00:01:24.537Z,13.20
2019-06-08T00:02:24.563Z,13.00
2019-06-08T00:03:24.592Z,13.00
2019-06-08T00:04:24.606Z,13.40
2019-06-08T00:05:24.630Z,15.30
2019-06-08T00:06:24.663Z,14.50
2019-06-08T00:07:24.675Z,15.50
2019-06-08T00:08:24.701Z,13.70
2019-06-08T00:09:24.720Z,15.50
2019-06-08T00:10:25.860Z,14.50
2019-06-08T00:11:24.765Z,14.20
2019-06-08T00:12:24.788Z,16.50
2019-06-08T00:13:24.810Z,13.30
2019-06-08T00:14:25.578Z,15.10
2019-06-08T00:15:24.856Z,18.30
2019-06-08T00:16:24.882Z,14.10
2019-06-08T00:17:37.744Z,13.80
2019-06-08T00:18:24.924Z,13.70
2019-06-08T00:19:24.949Z,15.20
2019-06-08T00:20:24.969Z,14.60
2019-06-08T00:21:24.993Z,15.00
2019-06-08T00:22:25.014Z,13.90
2019-06-08T00:23:25.037Z,14.30
2019-06-08T00:24:25.061Z,14.20
2019-06-08T00:25:25.089Z,14.60
2019-06-08T00:26:25.107Z,14.10
2019-06-08T00:27:25.129Z,16.50
2019-06-08T00:28:25.152Z,17.80
2019-06-08T00:29:25.175Z,15.60
2019-06-08T00:30:25.196Z,14.40
2019-06-08T00:31:25.221Z,15.90
2019-06-08T00:32:25.240Z,15.40
2019-06-08T00:33:25.263Z,17.20
2019-06-08T00:34:25.293Z,14.20
2019-06-08T00:35:25.309Z,14.30
2019-06-08T00:36:25.332Z,14.90
2019-06-08T00:37:25.355Z,14.10
2019-06-08T00:38:25.376Z,16.20
2019-06-08T00:39:25.402Z,15.60
2019-06-08T00:40:25.422Z,15.20
2019-06-08T00:41:25.516Z,13.40
2019-06-08T00:42:25.594Z,16.70
2019-06-08T00:43:25.576Z,14.30
2019-06-08T00:44:25.694Z,14.80
2019-06-08T00:45:25.675Z,14.90
2019-06-08T00:46:25.683Z,16.60
2019-06-08T00:47:26.778Z,15.70
2019-06-08T00:48:25.603Z,14.70
2019-06-08T00:49:25.627Z,15.10
2019-06-08T00:50:25.652Z,18.40
2019-06-08T00:51:25.683Z,13.80
2019-06-08T00:52:25.693Z,17.20
2019-06-08T00:53:25.716Z,15.60
2019-06-08T00:54:25.883Z,14.50
2019-06-08T00:55:25.771Z,15.70
2019-06-08T00:56:26.057Z,14.80
2019-06-08T00:57:26.045Z,16.20
2019-06-08T00:58:26.391Z,15.30
2019-06-08T00:59:26.185Z,15.30
2019-06-08T01:00:26.721Z,16.00
2019-06-08T01:01:27.805Z,15.00
2019-06-08T01:02:26.832Z,14.40
2019-06-08T01:03:25.942Z,14.10
2019-06-08T01:04:26.953Z,14.40
2019-06-08T01:05:26.080Z,15.80
2019-06-08T01:06:27.395Z,18.20
2019-06-08T01:07:26.302Z,15.10
2019-06-08T01:08:27.373Z,15.90
2019-06-08T01:09:26.318Z,15.70
2019-06-08T01:10:27.473Z,14.90
2019-06-08T01:11:26.924Z,14.60
2019-06-08T01:12:26.794Z,20.00
2019-06-08T01:13:26.934Z,15.10
2019-06-08T01:14:27.070Z,18.00
2019-06-08T01:15:31.999Z,15.30
2019-06-08T01:16:27.026Z,14.90
2019-06-08T01:17:27.291Z,16.00
2019-06-08T01:18:27.363Z,12.80
2019-06-08T01:19:27.250Z,15.50
2019-06-08T01:20:27.353Z,15.20
2019-06-08T01:21:27.566Z,14.30
2019-06-08T01:22:27.617Z,16.30
2019-06-08T01:23:27.781Z,17.20
2019-06-08T01:24:27.814Z,15.70
2019-06-08T01:25:27.903Z,16.10
2019-06-08T01:26:26.467Z,15.60
2019-06-08T01:27:26.489Z,15.30
2019-06-08T01:28:26.513Z,16.20
2019-06-08T01:29:26.541Z,15.50
2019-06-08T01:30:26.555Z,16.60
2019-06-08T01:31:26.668Z,17.90
2019-06-08T01:32:26.604Z,15.70
2019-06-08T01:33:26.691Z,20.30
2019-06-08T01:34:27.018Z,18.90
2019-06-08T01:35:26.891Z,16.90
2019-06-08T01:36:27.533Z,16.40
2019-06-08T01:37:27.032Z,16.70
2019-06-08T01:38:27.187Z,16.70
2019-06-08T01:39:27.280Z,17.30
2019-06-08T01:40:27.473Z,18.70
2019-06-08T01:41:27.725Z,15.80
2019-06-08T01:42:27.688Z,16.30
2019-06-08T01:43:27.756Z,14.70
2019-06-08T01:44:27.956Z,15.30
2019-06-08T01:45:27.899Z,16.20
2019-06-08T01:46:28.082Z,13.10
2019-06-08T01:47:28.136Z,15.00
2019-06-08T01:48:28.133Z,12.20
2019-06-08T01:49:28.331Z,11.20
2019-06-08T01:50:27.015Z,11.70
2019-06-08T01:51:27.040Z,8.90
2019-06-08T01:52:27.060Z,10.50
2019-06-08T01:53:27.083Z,6.50
2019-06-08T01:54:27.111Z,6.50
2019-06-08T01:55:27.132Z,7.80
2019-06-08T01:56:27.151Z,5.20
2019-06-08T01:57:27.247Z,6.90
2019-06-08T01:58:27.441Z,5.80
2019-06-08T01:59:27.414Z,3.50
2019-06-08T02:00:35.173Z,3.90
2019-06-08T02:01:27.763Z,3.10
2019-06-08T02:02:27.869Z,3.00
2019-06-08T02:03:28.163Z,3.10
2019-06-08T02:04:28.072Z,3.10
2019-06-08T02:05:28.190Z,2.90
2019-06-08T02:06:28.376Z,2.70
2019-06-08T02:07:28.310Z,2.80
2019-06-08T02:08:28.533Z,2.30
2019-06-08T02:09:28.594Z,4.80
2019-06-08T02:10:28.691Z,2.00
2019-06-08T02:11:28.702Z,1.80
2019-06-08T02:12:28.785Z,2.60
2019-06-08T02:13:28.838Z,2.30
2019-06-08T02:14:29.037Z,4.60
2019-06-08T02:15:27.587Z,3.30
2019-06-08T02:16:27.606Z,2.30
2019-06-08T02:17:27.630Z,1.70
2019-06-08T02:18:39.963Z,3.00
2019-06-08T02:19:28.388Z,2.40
2019-06-08T02:20:28.693Z,2.00
2019-06-08T02:21:28.759Z,2.40
2019-06-08T02:22:28.786Z,2.30
2019-06-08T02:23:28.849Z,2.60
2019-06-08T02:24:29.137Z,2.60
2019-06-08T02:25:29.251Z,2.00
2019-06-08T02:26:29.179Z,1.80
2019-06-08T02:27:27.857Z,1.90
2019-06-08T02:28:27.875Z,2.90
2019-06-08T02:29:27.898Z,2.90
2019-06-08T02:30:28.274Z,1.90
2019-06-08T02:31:28.094Z,1.80
2019-06-08T02:32:28.508Z,2.80
2019-06-08T02:33:28.343Z,1.80
2019-06-08T02:34:28.319Z,2.10
2019-06-08T02:35:28.067Z,2.00
2019-06-08T02:36:28.772Z,3.50
2019-06-08T02:37:28.685Z,2.50
2019-06-08T02:38:29.782Z,2.40
2019-06-08T02:39:28.507Z,2.80
2019-06-08T02:40:30.045Z,1.90
2019-06-08T02:41:28.980Z,2.00
2019-06-08T02:42:28.361Z,2.70
2019-06-08T02:43:28.992Z,1.50
2019-06-08T02:44:28.756Z,3.50
2019-06-08T02:45:29.640Z,3.80
2019-06-08T02:46:28.994Z,1.50
2019-06-08T02:47:28.503Z,3.50
2019-06-08T02:48:29.492Z,5.00
2019-06-08T02:49:29.087Z,2.40
2019-06-08T02:50:28.511Z,1.40
2019-06-08T02:51:28.753Z,1.60
2019-06-08T02:52:29.874Z,1.60
2019-06-08T02:53:29.593Z,1.70
2019-06-08T02:54:29.986Z,1.80
2019-06-08T02:55:28.759Z,1.80
2019-06-08T02:56:29.735Z,3.80
2019-06-08T02:57:29.131Z,1.60
2019-06-08T02:58:29.297Z,2.30
2019-06-08T02:59:29.284Z,2.70
2019-06-08T03:00:29.260Z,2.20
2019-06-08T03:01:29.541Z,2.30
2019-06-08T03:02:29.677Z,2.30
2019-06-08T03:03:29.523Z,1.40
2019-06-08T03:04:29.856Z,1.40
2019-06-08T03:05:29.729Z,1.50
2019-06-08T03:06:30.164Z,2.70
2019-06-08T03:07:30.338Z,1.40
2019-06-08T03:08:28.769Z,2.40
2019-06-08T03:09:30.328Z,1.60
2019-06-08T03:10:30.707Z,1.30
2019-06-08T03:11:30.382Z,2.80
2019-06-08T03:12:30.918Z,2.40
2019-06-08T03:13:28.880Z,1.40
2019-06-08T03:14:28.905Z,2.80
2019-06-08T03:15:28.921Z,2.30
2019-06-08T03:16:28.945Z,1.50
2019-06-08T03:17:28.967Z,9.30
2019-06-08T03:18:28.990Z,1.80
2019-06-08T03:19:29.013Z,1.40
2019-06-08T03:20:29.034Z,1.30
2019-06-08T03:21:29.057Z,1.40
2019-06-08T03:22:29.079Z,1.80
2019-06-08T03:23:29.103Z,2.10
2019-06-08T03:24:29.122Z,1.70
2019-06-08T03:25:29.145Z,1.70
2019-06-08T03:26:29.169Z,1.40
2019-06-08T03:27:29.190Z,2.40
2019-06-08T03:28:29.210Z,1.20
2019-06-08T03:29:29.236Z,1.60
2019-06-08T03:30:29.257Z,1.30
2019-06-08T03:31:29.303Z,1.90
2019-06-08T03:32:29.301Z,2.20
2019-06-08T03:33:29.324Z,1.40
2019-06-08T03:34:29.348Z,2.10
2019-06-08T03:35:29.367Z,1.30
2019-06-08T03:36:29.388Z,1.20
2019-06-08T03:37:29.410Z,1.50
2019-06-08T03:38:29.430Z,2.40
2019-06-08T03:39:29.462Z,1.60
2019-06-08T03:40:29.478Z,1.90
2019-06-08T03:41:29.500Z,2.00
2019-06-08T03:42:29.522Z,1.70
2019-06-08T03:43:29.541Z,5.90
2019-06-08T03:44:29.564Z,2.30
2019-06-08T03:45:29.586Z,2.30
2019-06-08T03:46:29.610Z,2.00
2019-06-08T03:47:29.631Z,1.50
2019-06-08T03:48:29.651Z,1.50
2019-06-08T03:49:41.065Z,1.40
2019-06-08T03:50:29.697Z,1.50
2019-06-08T03:51:29.720Z,1.50
2019-06-08T03:52:29.739Z,2.50
2019-06-08T03:53:29.760Z,1.60
2019-06-08T03:54:29.800Z,2.30
2019-06-08T03:55:29.810Z,1.70
2019-06-08T03:56:29.907Z,2.80
2019-06-08T03:57:29.905Z,3.10
2019-06-08T03:58:33.651Z,1.20
2019-06-08T03:59:29.972Z,2.20
2019-06-08T04:00:29.967Z,1.50
2019-06-08T04:01:29.967Z,1.60
2019-06-08T04:02:29.967Z,3.90
2019-06-08T04:03:29.979Z,2.00
2019-06-08T04:04:30.000Z,1.90
2019-06-08T04:05:30.026Z,2.20
2019-06-08T04:06:30.049Z,2.80
2019-06-08T04:07:30.070Z,1.80
2019-06-08T04:08:30.087Z,3.30
2019-06-08T04:09:30.108Z,3.80
2019-06-08T04:10:30.132Z,2.10
2019-06-08T04:11:30.151Z,1.90
2019-06-08T04:12:30.173Z,1.00
2019-06-08T04:13:30.194Z,1.80
2019-06-08T04:14:30.220Z,2.20
2019-06-08T04:15:30.237Z,1.30
2019-06-08T04:16:30.271Z,1.70
2019-06-08T04:17:30.280Z,1.60
2019-06-08T04:18:30.307Z,1.70
2019-06-08T04:19:30.323Z,1.30
2019-06-08T04:20:30.344Z,1.30
2019-06-08T04:21:30.367Z,6.40
2019-06-08T04:22:30.398Z,3.10
2019-06-08T04:23:30.411Z,1.30
2019-06-08T04:24:30.431Z,1.30
2019-06-08T04:25:30.452Z,2.30
2019-06-08T04:26:30.479Z,2.20
2019-06-08T04:27:30.494Z,1.20
2019-06-08T04:28:30.517Z,1.30
2019-06-08T04:29:30.539Z,2.30
2019-06-08T04:30:30.561Z,1.40
2019-06-08T04:31:30.582Z,1.10
2019-06-08T04:32:30.604Z,1.50
2019-06-08T04:33:30.634Z,1.70
2019-06-08T04:34:30.646Z,3.20
2019-06-08T04:35:30.672Z,2.70
2019-06-08T04:36:30.688Z,1.50
2019-06-08T04:37:30.712Z,2.70
2019-06-08T04:38:30.731Z,1.30
2019-06-08T04:39:30.756Z,1.90
2019-06-08T04:40:30.775Z,1.20
2019-06-08T04:41:30.795Z,1.80
2019-06-08T04:42:30.821Z,1.40
2019-06-08T04:43:30.841Z,1.00
2019-06-08T04:44:30.863Z,1.90
2019-06-08T04:45:30.910Z,3.00
2019-06-08T04:46:30.905Z,1.00
2019-06-08T04:47:30.934Z,2.20
2019-06-08T04:48:30.947Z,1.60
2019-06-08T04:49:30.978Z,1.60
2019-06-08T04:50:30.994Z,1.40
2019-06-08T04:51:31.026Z,2.00
2019-06-08T04:52:31.057Z,2.90
2019-06-08T04:53:31.062Z,1.00
2019-06-08T04:54:31.083Z,1.40
2019-06-08T04:55:31.194Z,1.00
2019-06-08T04:56:31.127Z,1.80
2019-06-08T04:57:31.146Z,2.80
2019-06-08T04:58:31.173Z,1.90
2019-06-08T04:59:31.191Z,1.00
2019-06-08T05:00:31.473Z,2.70
2019-06-08T05:01:31.239Z,2.10
2019-06-08T05:02:31.257Z,2.00
2019-06-08T05:03:31.280Z,3.10
2019-06-08T05:04:31.301Z,1.20
2019-06-08T05:05:31.323Z,1.00
2019-06-08T05:06:31.345Z,1.20
2019-06-08T05:07:31.367Z,1.30
2019-06-08T05:08:31.391Z,1.10
2019-06-08T05:09:31.410Z,1.00
2019-06-08T05:10:31.433Z,1.80
2019-06-08T05:11:31.455Z,1.00
2019-06-08T05:12:31.477Z,1.70
2019-06-08T05:13:31.503Z,2.80
2019-06-08T05:14:31.526Z,1.80
2019-06-08T05:15:31.544Z,1.20
2019-06-08T05:16:31.564Z,1.00
2019-06-08T05:17:31.592Z,3.20
2019-06-08T05:18:31.612Z,2.10
2019-06-08T05:19:32.118Z,3.30
2019-06-08T05:20:38.933Z,1.20
2019-06-08T05:21:31.678Z,1.10
2019-06-08T05:22:31.714Z,2.30
2019-06-08T05:23:31.801Z,1.50
2019-06-08T05:24:31.797Z,1.70
2019-06-08T05:25:31.794Z,1.90
2019-06-08T05:26:31.853Z,1.70
2019-06-08T05:27:31.855Z,1.00
2019-06-08T05:28:31.863Z,1.80
2019-06-08T05:29:31.853Z,1.40
2019-06-08T05:30:31.883Z,1.50
2019-06-08T05:31:31.898Z,1.50
2019-06-08T05:32:31.940Z,1.10
2019-06-08T05:33:31.965Z,1.20
2019-06-08T05:34:32.007Z,1.20
2019-06-08T05:35:31.989Z,1.20
2019-06-08T05:36:32.009Z,2.30
2019-06-08T05:37:32.047Z,1.00
2019-06-08T05:38:32.078Z,1.80
2019-06-08T05:39:32.079Z,2.50
2019-06-08T05:40:32.099Z,2.40
2019-06-08T05:41:32.122Z,1.30
2019-06-08T05:42:32.145Z,2.90
2019-06-08T05:43:32.170Z,3.70
2019-06-08T05:44:32.190Z,1.60
2019-06-08T05:45:32.212Z,1.70
2019-06-08T05:46:32.234Z,2.80
2019-06-08T05:47:32.258Z,1.20
2019-06-08T05:48:32.278Z,1.00
2019-06-08T05:49:32.301Z,2.80
2019-06-08T05:50:32.323Z,2.50
2019-06-08T05:51:32.348Z,3.60
2019-06-08T05:52:32.368Z,1.40
2019-06-08T05:53:32.401Z,1.10
2019-06-08T05:54:32.412Z,1.20
2019-06-08T05:55:32.436Z,0.90
2019-06-08T05:56:32.457Z,2.60
2019-06-08T05:57:32.479Z,2.90
2019-06-08T05:58:32.502Z,1.90
2019-06-08T05:59:32.526Z,2.90
2019-06-08T06:00:32.559Z,1.70
2019-06-08T06:01:32.569Z,1.70
2019-06-08T06:02:32.590Z,0.90
2019-06-08T06:03:32.613Z,1.90
2019-06-08T06:04:32.635Z,1.70
2019-06-08T06:05:32.660Z,1.50
2019-06-08T06:06:32.679Z,1.80
2019-06-08T06:07:32.700Z,1.80
2019-06-08T06:08:32.726Z,2.90
2019-06-08T06:09:32.745Z,2.70
2019-06-08T06:10:32.771Z,0.80
2019-06-08T06:11:32.793Z,1.30
2019-06-08T06:12:32.812Z,0.80
2019-06-08T06:13:32.834Z,4.50
2019-06-08T06:14:32.856Z,0.90
2019-06-08T06:15:32.879Z,2.70
2019-06-08T06:16:32.898Z,0.80
2019-06-08T06:17:32.926Z,1.50
2019-06-08T06:18:32.946Z,0.80
2019-06-08T06:19:32.971Z,1.90
2019-06-08T06:20:32.993Z,3.10
2019-06-08T06:21:33.017Z,0.80
2019-06-08T06:22:33.042Z,0.80
2019-06-08T06:23:33.065Z,1.00
2019-06-08T06:24:33.087Z,0.80
2019-06-08T06:25:33.110Z,1.60
2019-06-08T06:26:33.133Z,0.80
2019-06-08T06:27:33.162Z,0.90
2019-06-08T06:28:33.183Z,1.10
2019-06-08T06:29:33.213Z,1.40
2019-06-08T06:30:33.231Z,2.00
2019-06-08T06:31:33.257Z,0.80
2019-06-08T06:32:33.279Z,1.30
2019-06-08T06:33:33.308Z,1.50
2019-06-08T06:34:33.331Z,0.80
2019-06-08T06:35:33.351Z,1.40
2019-06-08T06:36:33.379Z,1.00
2019-06-08T06:37:33.411Z,1.10
2019-06-08T06:38:33.446Z,1.10
2019-06-08T06:39:33.450Z,1.80
2019-06-08T06:40:33.472Z,2.70
2019-06-08T06:41:33.497Z,1.60
2019-06-08T06:42:33.523Z,1.10
2019-06-08T06:43:33.554Z,3.00
2019-06-08T06:44:33.570Z,1.60
2019-06-08T06:45:33.596Z,1.00
2019-06-08T06:46:33.697Z,1.40
2019-06-08T06:47:33.702Z,1.10
2019-06-08T06:48:33.699Z,0.60
2019-06-08T06:49:33.751Z,0.70
2019-06-08T06:50:33.780Z,2.70
2019-06-08T06:51:34.057Z,1.80
2019-06-08T06:52:33.776Z,1.70
2019-06-08T06:53:33.800Z,2.20
2019-06-08T06:54:33.825Z,1.20
2019-06-08T06:55:33.857Z,0.50
2019-06-08T06:56:33.884Z,3.40
2019-06-08T06:57:36.245Z,1.70
2019-06-08T06:58:33.934Z,1.60
2019-06-08T06:59:33.962Z,2.40
2019-06-08T07:00:33.987Z,2.50
2019-06-08T07:01:34.013Z,0.80
2019-06-08T07:02:34.041Z,1.00
2019-06-08T07:03:34.067Z,1.90
2019-06-08T07:04:34.091Z,1.10
2019-06-08T07:05:34.175Z,3.30
2019-06-08T07:06:34.148Z,1.60
2019-06-08T07:07:34.175Z,0.70
2019-06-08T07:08:34.200Z,1.50
2019-06-08T07:09:34.245Z,1.00
2019-06-08T07:10:34.261Z,1.00
2019-06-08T07:11:34.280Z,3.60
2019-06-08T07:12:34.310Z,0.70
2019-06-08T07:13:34.332Z,1.60
2019-06-08T07:14:34.362Z,1.10
2019-06-08T07:15:41.444Z,2.20
2019-06-08T07:16:34.411Z,1.20
2019-06-08T07:17:34.436Z,1.50
2019-06-08T07:18:34.463Z,2.20
2019-06-08T07:19:34.497Z,1.90
2019-06-08T07:20:34.513Z,1.30
2019-06-08T07:21:41.676Z,1.40
2019-06-08T07:22:34.566Z,2.60
2019-06-08T07:23:34.609Z,1.30
2019-06-08T07:24:34.618Z,1.00
2019-06-08T07:25:34.642Z,0.60
2019-06-08T07:26:34.671Z,1.70
2019-06-08T07:27:34.696Z,1.10
2019-06-08T07:28:34.723Z,3.30
2019-06-08T07:29:34.748Z,1.60
2019-06-08T07:30:34.778Z,0.80
2019-06-08T07:31:34.800Z,2.40
2019-06-08T07:32:34.828Z,1.30
2019-06-08T07:33:34.864Z,1.60
2019-06-08T07:34:34.876Z,1.10
2019-06-08T07:35:34.904Z,3.10
2019-06-08T07:36:34.929Z,1.70
2019-06-08T07:37:34.966Z,1.20
2019-06-08T07:38:34.986Z,1.70
2019-06-08T07:39:35.010Z,1.00
2019-06-08T07:40:35.037Z,1.50
2019-06-08T07:41:35.064Z,1.20
2019-06-08T07:42:35.087Z,1.20
2019-06-08T07:43:35.113Z,0.60
2019-06-08T07:44:35.139Z,1.10
2019-06-08T07:45:35.162Z,0.70
2019-06-08T07:46:35.190Z,2.00
2019-06-08T07:47:35.215Z,2.80
2019-06-08T07:48:35.241Z,1.60
2019-06-08T07:49:35.266Z,0.70
2019-06-08T07:50:35.292Z,0.80
2019-06-08T07:51:35.317Z,1.00
2019-06-08T07:52:35.344Z,1.30
2019-06-08T07:53:35.369Z,1.80
2019-06-08T07:54:35.392Z,4.30
2019-06-08T07:55:35.488Z,0.80
2019-06-08T07:56:35.438Z,0.60
2019-06-08T07:57:35.464Z,0.80
2019-06-08T07:58:35.492Z,2.00
2019-06-08T07:59:35.602Z,2.40
2019-06-08T08:00:35.608Z,2.50
2019-06-08T08:01:36.637Z,1.20
2019-06-08T08:02:35.669Z,2.10
2019-06-08T08:03:35.667Z,1.80
2019-06-08T08:04:35.671Z,0.60
2019-06-08T08:05:35.669Z,0.60
2019-06-08T08:06:35.685Z,1.40
2019-06-08T08:07:35.716Z,1.00
2019-06-08T08:08:35.734Z,1.60
2019-06-08T08:09:35.758Z,1.50
2019-06-08T08:10:35.782Z,1.80
2019-06-08T08:11:35.808Z,1.00
2019-06-08T08:12:35.830Z,2.70
2019-06-08T08:13:35.853Z,2.10
2019-06-08T08:14:35.879Z,0.70
2019-06-08T08:15:35.903Z,4.10
2019-06-08T08:16:35.926Z,1.70
2019-06-08T08:17:35.951Z,1.00
2019-06-08T08:18:35.976Z,1.00
2019-06-08T08:19:35.999Z,2.50
2019-06-08T08:20:36.023Z,4.20
2019-06-08T08:21:37.915Z,1.30
2019-06-08T08:22:38.013Z,0.70
2019-06-08T08:23:38.141Z,1.90
2019-06-08T08:24:38.489Z,2.00
2019-06-08T08:25:37.877Z,1.40
2019-06-08T08:26:38.937Z,0.80
2019-06-08T08:27:37.540Z,2.10
2019-06-08T08:28:37.483Z,1.60
2019-06-08T08:29:38.247Z,3.60
2019-06-08T08:30:37.721Z,3.50
2019-06-08T08:31:37.377Z,1.60
2019-06-08T08:32:38.058Z,1.00
2019-06-08T08:33:37.959Z,1.50
2019-06-08T08:34:38.247Z,1.60
2019-06-08T08:35:38.100Z,8.30
2019-06-08T08:36:38.067Z,3.80
2019-06-08T08:37:38.050Z,0.80
2019-06-08T08:38:38.095Z,1.10
2019-06-08T08:39:37.722Z,0.80
2019-06-08T08:40:38.597Z,1.30
2019-06-08T08:41:38.794Z,1.00
2019-06-08T08:42:38.601Z,4.30
2019-06-08T08:43:37.728Z,2.70
2019-06-08T08:44:37.982Z,1.30
2019-06-08T08:45:37.334Z,2.60
2019-06-08T08:46:38.707Z,2.10
2019-06-08T08:47:38.816Z,0.80
2019-06-08T08:48:37.735Z,2.00
2019-06-08T08:49:38.094Z,1.30
2019-06-08T08:50:38.289Z,1.00
2019-06-08T08:51:37.800Z,2.50
2019-06-08T08:52:40.351Z,2.80
2019-06-08T08:53:37.491Z,1.30
2019-06-08T08:54:37.738Z,1.80
2019-06-08T08:55:37.961Z,0.90
2019-06-08T08:56:38.409Z,1.00
2019-06-08T08:57:38.614Z,1.30
2019-06-08T08:58:38.098Z,0.90
2019-06-08T08:59:38.207Z,1.70
2019-06-08T09:00:38.218Z,1.80
2019-06-08T09:01:38.295Z,3.70
2019-06-08T09:02:37.436Z,2.90
2019-06-08T09:03:39.331Z,1.60
2019-06-08T09:04:38.089Z,1.60
2019-06-08T09:05:38.203Z,1.80
2019-06-08T09:06:38.085Z,1.70
2019-06-08T09:07:38.452Z,1.30
2019-06-08T09:08:37.733Z,1.60
2019-06-08T09:09:38.745Z,1.00
2019-06-08T09:10:38.264Z,0.80
2019-06-08T09:11:40.808Z,4.60
2019-06-08T09:12:37.671Z,3.40
2019-06-08T09:13:37.727Z,1.60
2019-06-08T09:14:38.699Z,2.00
2019-06-08T09:15:37.840Z,1.70
2019-06-08T09:16:38.382Z,2.30
2019-06-08T09:17:38.819Z,0.90
2019-06-08T09:18:37.605Z,1.80
2019-06-08T09:19:38.254Z,1.10
2019-06-08T09:20:38.027Z,2.40
2019-06-08T09:21:38.348Z,1.40
2019-06-08T09:22:50.189Z,4.40
2019-06-08T09:23:37.822Z,0.80
2019-06-08T09:24:39.046Z,3.40
2019-06-08T09:25:40.244Z,2.50
2019-06-08T09:26:38.253Z,0.90
2019-06-08T09:27:38.289Z,0.80
2019-06-08T09:28:38.824Z,0.70
2019-06-08T09:29:38.858Z,2.00
2019-06-08T09:30:38.490Z,5.50
2019-06-08T09:31:39.060Z,3.20
2019-06-08T09:32:38.215Z,2.70
2019-06-08T09:33:38.839Z,1.70
2019-06-08T09:34:38.543Z,0.90
2019-06-08T09:35:37.936Z,0.90
2019-06-08T09:36:40.682Z,1.20
2019-06-08T09:37:37.949Z,1.90
2019-06-08T09:38:38.668Z,2.80
2019-06-08T09:39:38.592Z,0.90
2019-06-08T09:40:38.567Z,0.70
2019-06-08T09:41:38.048Z,2.10
2019-06-08T09:42:37.975Z,4.90
2019-06-08T09:43:38.817Z,2.20
2019-06-08T09:44:38.046Z,2.00
2019-06-08T09:45:38.222Z,0.70
2019-06-08T09:46:38.515Z,1.50
2019-06-08T09:47:38.243Z,4.40
2019-06-08T09:48:38.279Z,1.50
2019-06-08T09:49:38.213Z,2.60
2019-06-08T09:50:38.583Z,1.50
2019-06-08T09:51:38.203Z,3.00
2019-06-08T09:52:40.945Z,1.90
2019-06-08T09:53:41.451Z,3.00
2019-06-08T09:54:38.576Z,1.50
2019-06-08T09:55:41.134Z,1.20
2019-06-08T09:56:38.320Z,1.00
2019-06-08T09:57:38.592Z,1.10
2019-06-08T09:58:39.179Z,3.40
2019-06-08T09:59:38.652Z,0.90
2019-06-08T10:00:38.451Z,1.50
2019-06-08T10:01:38.542Z,2.70
2019-06-08T10:02:38.481Z,1.00
2019-06-08T10:03:39.119Z,2.20
2019-06-08T10:04:38.803Z,2.20
2019-06-08T10:05:38.897Z,1.30
2019-06-08T10:06:40.631Z,1.70
2019-06-08T10:07:38.958Z,4.10
2019-06-08T10:08:38.882Z,0.90
2019-06-08T10:09:38.649Z,1.80
2019-06-08T10:10:38.670Z,3.50
2019-06-08T10:11:38.686Z,0.90
2019-06-08T10:12:41.077Z,1.10
2019-06-08T10:13:39.785Z,1.40
2019-06-08T10:14:38.781Z,0.80
2019-06-08T10:15:38.835Z,2.30
2019-06-08T10:16:38.811Z,2.00
2019-06-08T10:17:38.845Z,3.60
2019-06-08T10:18:38.861Z,0.90
2019-06-08T10:19:38.887Z,0.80
2019-06-08T10:20:38.909Z,1.20
2019-06-08T10:21:42.741Z,1.00
2019-06-08T10:22:39.001Z,1.50
2019-06-08T10:23:41.732Z,1.10
2019-06-08T10:24:41.428Z,0.80
2019-06-08T10:25:39.053Z,1.80
2019-06-08T10:26:39.069Z,2.10
2019-06-08T10:27:39.090Z,3.50
2019-06-08T10:28:39.179Z,1.50
2019-06-08T10:29:39.142Z,1.70
2019-06-08T10:30:39.189Z,2.50
2019-06-08T10:31:43.302Z,2.50
2019-06-08T10:32:39.217Z,1.60
2019-06-08T10:33:40.553Z,0.90
2019-06-08T10:34:39.261Z,1.80
2019-06-08T10:35:39.287Z,1.00
2019-06-08T10:36:39.310Z,1.90
2019-06-08T10:37:39.424Z,2.30
2019-06-08T10:38:41.220Z,0.90
2019-06-08T10:39:39.428Z,2.40
2019-06-08T10:40:39.470Z,1.40
2019-06-08T10:41:39.471Z,0.90
2019-06-08T10:42:40.227Z,1.20
2019-06-08T10:43:39.516Z,5.90
2019-06-08T10:44:39.509Z,1.30
2019-06-08T10:45:39.538Z,2.30
2019-06-08T10:46:40.587Z,2.20
2019-06-08T10:47:39.585Z,1.30
2019-06-08T10:48:39.608Z,1.90
2019-06-08T10:49:39.635Z,0.90
2019-06-08T10:50:39.664Z,4.00
2019-06-08T10:51:40.947Z,1.20
2019-06-08T10:52:39.719Z,2.40
2019-06-08T10:53:48.430Z,1.20
2019-06-08T10:54:39.766Z,1.30
2019-06-08T10:55:40.848Z,2.60
2019-06-08T10:56:39.819Z,1.40
2019-06-08T10:57:39.846Z,3.30
2019-06-08T10:58:39.874Z,2.40
2019-06-08T10:59:40.272Z,2.40
2019-06-08T11:00:39.929Z,3.30
2019-06-08T11:01:39.958Z,1.70
2019-06-08T11:02:40.711Z,2.50
2019-06-08T11:03:40.013Z,2.40
2019-06-08T11:04:43.211Z,3.10
2019-06-08T11:05:40.070Z,2.20
2019-06-08T11:06:40.334Z,2.30
2019-06-08T11:07:40.151Z,1.40
2019-06-08T11:08:40.164Z,1.90
2019-06-08T11:09:40.199Z,1.20
2019-06-08T11:10:40.225Z,3.20
2019-06-08T11:11:40.265Z,2.90
2019-06-08T11:12:40.297Z,1.80
2019-06-08T11:13:40.330Z,3.20
2019-06-08T11:14:40.817Z,0.80
2019-06-08T11:15:40.390Z,2.40
2019-06-08T11:16:40.426Z,1.80
2019-06-08T11:17:40.455Z,1.90
2019-06-08T11:18:40.488Z,4.20
2019-06-08T11:19:40.528Z,1.70
2019-06-08T11:20:40.562Z,1.50
2019-06-08T11:21:40.590Z,3.80
2019-06-08T11:22:40.626Z,2.90
2019-06-08T11:23:41.708Z,2.30
2019-06-08T11:24:40.754Z,3.80
2019-06-08T11:25:40.724Z,2.00
2019-06-08T11:26:40.759Z,1.80
2019-06-08T11:27:40.795Z,1.70
2019-06-08T11:28:40.833Z,3.20
2019-06-08T11:29:40.856Z,1.60
2019-06-08T11:30:40.889Z,3.90
2019-06-08T11:31:40.922Z,3.40
2019-06-08T11:32:40.959Z,1.30
2019-06-08T11:33:40.988Z,3.80
2019-06-08T11:34:41.018Z,1.60
2019-06-08T11:35:41.053Z,2.60
2019-06-08T11:36:41.083Z,2.80
2019-06-08T11:37:41.229Z,1.90
2019-06-08T11:38:41.160Z,1.60
2019-06-08T11:39:41.181Z,2.90
2019-06-08T11:40:41.213Z,3.00
2019-06-08T11:41:41.258Z,3.00
2019-06-08T11:42:41.358Z,2.20
2019-06-08T11:43:41.404Z,2.10
2019-06-08T11:44:41.399Z,4.60
2019-06-08T11:45:41.406Z,2.40
2019-06-08T11:46:42.702Z,3.70
2019-06-08T11:47:41.469Z,1.50
2019-06-08T11:48:41.725Z,1.80
2019-06-08T11:49:41.531Z,1.60
2019-06-08T11:50:42.084Z,2.90
2019-06-08T11:51:41.605Z,1.50
2019-06-08T11:52:41.637Z,2.40
2019-06-08T11:53:41.711Z,1.40
2019-06-08T11:54:41.703Z,5.80
2019-06-08T11:55:41.737Z,1.70
2019-06-08T11:56:41.771Z,1.70
2019-06-08T11:57:41.803Z,5.50
2019-06-08T11:58:41.838Z,3.20
2019-06-08T11:59:41.872Z,1.00
2019-06-08T12:00:41.904Z,1.00
2019-06-08T12:01:41.939Z,2.70
2019-06-08T12:02:41.970Z,2.70
2019-06-08T12:03:42.006Z,5.00
2019-06-08T12:04:42.036Z,2.40
2019-06-08T12:05:42.069Z,1.50
2019-06-08T12:06:42.111Z,1.60
2019-06-08T12:07:42.133Z,2.20
2019-06-08T12:08:42.166Z,2.40
2019-06-08T12:09:42.199Z,2.20
2019-06-08T12:10:42.230Z,5.00
2019-06-08T12:11:42.264Z,1.80
2019-06-08T12:12:42.321Z,8.30
2019-06-08T12:13:42.324Z,1.70
2019-06-08T12:14:42.354Z,2.90
2019-06-08T12:15:42.387Z,1.70
2019-06-08T12:16:42.417Z,2.50
2019-06-08T12:17:42.449Z,2.30
2019-06-08T12:18:42.479Z,2.60
2019-06-08T12:19:42.510Z,2.70
2019-06-08T12:20:42.540Z,6.20
2019-06-08T12:21:42.573Z,2.00
2019-06-08T12:22:42.605Z,3.40
2019-06-08T12:23:42.635Z,2.70
2019-06-08T12:24:42.810Z,2.20
2019-06-08T12:25:42.696Z,4.20
2019-06-08T12:26:42.728Z,1.80
2019-06-08T12:27:42.779Z,3.00
2019-06-08T12:28:42.793Z,4.30
2019-06-08T12:29:42.825Z,3.70
2019-06-08T12:30:42.859Z,2.40
2019-06-08T12:31:42.892Z,3.40
2019-06-08T12:32:42.926Z,3.60
2019-06-08T12:33:42.957Z,6.00
2019-06-08T12:34:42.989Z,3.40
2019-06-08T12:35:43.025Z,5.00
2019-06-08T12:36:43.062Z,2.00
2019-06-08T12:37:43.095Z,4.90
2019-06-08T12:38:43.127Z,2.10
2019-06-08T12:39:43.160Z,2.40
2019-06-08T12:40:43.262Z,7.50
2019-06-08T12:41:43.268Z,5.20
2019-06-08T12:42:43.328Z,1.50
2019-06-08T12:43:43.332Z,4.20
2019-06-08T12:44:43.794Z,3.40
2019-06-08T12:45:43.368Z,2.90
2019-06-08T12:46:43.428Z,1.80
2019-06-08T12:47:43.442Z,2.80
2019-06-08T12:48:43.479Z,2.20
2019-06-08T12:49:43.512Z,5.00
2019-06-08T12:50:43.557Z,4.10
2019-06-08T12:51:43.586Z,1.10
2019-06-08T12:52:43.625Z,2.60
2019-06-08T12:53:43.658Z,0.80
2019-06-08T12:54:56.593Z,1.70
2019-06-08T12:55:43.732Z,7.40
2019-06-08T12:56:43.766Z,3.30
2019-06-08T12:57:43.803Z,2.50
2019-06-08T12:58:43.842Z,1.70
2019-06-08T12:59:45.514Z,3.00
2019-06-08T13:00:43.913Z,4.30
2019-06-08T13:01:43.950Z,2.70
2019-06-08T13:02:43.991Z,3.00
2019-06-08T13:03:44.027Z,1.60
2019-06-08T13:04:44.064Z,4.10
2019-06-08T13:05:44.098Z,3.20
2019-06-08T13:06:44.134Z,3.10
2019-06-08T13:07:44.172Z,1.40
2019-06-08T13:08:44.209Z,5.40
2019-06-08T13:09:44.244Z,2.50
2019-06-08T13:10:44.293Z,4.80
2019-06-08T13:11:44.320Z,1.30
2019-06-08T13:12:44.354Z,2.90
2019-06-08T13:13:44.390Z,3.60
2019-06-08T13:14:44.428Z,1.60